sensor_id;sensor_type;location;lat;lon;timestamp;temperature;humidity
70820;DHT22;58439;51.046;13.692;2022-12-31T00:01:40;10.50;91.20
70820;DHT22;58439;51.046;13.692;2022-12-31T00:04:07;10.60;91.40
70820;DHT22;58439;51.046;13.692;2022-12-31T00:06:35;10.60;91.50
70820;DHT22;58439;51.046;13.692;2022-12-31T00:09:05;10.60;91.40
70820;DHT22;58439;51.046;13.692;2022-12-31T00:11:34;10.50;91.50
70820;DHT22;58439;51.046;13.692;2022-12-31T00:14:02;10.60;91.80
70820;DHT22;58439;51.046;13.692;2022-12-31T00:16:31;10.60;91.80
70820;DHT22;58439;51.046;13.692;2022-12-31T00:19:02;10.70;91.80
70820;DHT22;58439;51.046;13.692;2022-12-31T00:21:30;10.70;91.80
70820;DHT22;58439;51.046;13.692;2022-12-31T00:23:58;10.70;91.70
70820;DHT22;58439;51.046;13.692;2022-12-31T00:26:27;10.70;91.70
70820;DHT22;58439;51.046;13.692;2022-12-31T00:28:56;10.70;91.80
70820;DHT22;58439;51.046;13.692;2022-12-31T00:31:25;10.60;91.90
70820;DHT22;58439;51.046;13.692;2022-12-31T00:33:54;10.50;91.80
70820;DHT22;58439;51.046;13.692;2022-12-31T00:36:26;10.50;92.30
70820;DHT22;58439;51.046;13.692;2022-12-31T00:38:56;10.40;92.60
70820;DHT22;58439;51.046;13.692;2022-12-31T00:41:24;10.50;92.60
70820;DHT22;58439;51.046;13.692;2022-12-31T00:43:51;10.60;92.40
70820;DHT22;58439;51.046;13.692;2022-12-31T00:46:19;10.60;92.50
70820;DHT22;58439;51.046;13.692;2022-12-31T00:48:46;10.60;92.50
70820;DHT22;58439;51.046;13.692;2022-12-31T00:51:14;10.60;92.60
70820;DHT22;58439;51.046;13.692;2022-12-31T00:53:43;10.60;92.60
70820;DHT22;58439;51.046;13.692;2022-12-31T00:56:11;10.70;92.70
70820;DHT22;58439;51.046;13.692;2022-12-31T00:58:40;10.60;92.50
70820;DHT22;58439;51.046;13.692;2022-12-31T01:01:11;10.60;92.40
70820;DHT22;58439;51.046;13.692;2022-12-31T01:03:42;10.50;92.50
70820;DHT22;58439;51.046;13.692;2022-12-31T01:06:09;10.30;92.70
70820;DHT22;58439;51.046;13.692;2022-12-31T01:08:36;10.20;92.90
70820;DHT22;58439;51.046;13.692;2022-12-31T01:11:04;10.10;93.20
70820;DHT22;58439;51.046;13.692;2022-12-31T01:13:50;10.10;93.50
70820;DHT22;58439;51.046;13.692;2022-12-31T01:16:19;10.00;93.40
70820;DHT22;58439;51.046;13.692;2022-12-31T01:18:48;10.00;93.60
70820;DHT22;58439;51.046;13.692;2022-12-31T01:21:16;9.90;93.60
70820;DHT22;58439;51.046;13.692;2022-12-31T01:23:44;9.90;93.70
70820;DHT22;58439;51.046;13.692;2022-12-31T01:26:12;9.90;93.60
70820;DHT22;58439;51.046;13.692;2022-12-31T01:28:40;9.80;93.80
70820;DHT22;58439;51.046;13.692;2022-12-31T01:31:09;9.80;93.80
70820;DHT22;58439;51.046;13.692;2022-12-31T01:33:37;9.70;93.90
70820;DHT22;58439;51.046;13.692;2022-12-31T01:36:05;9.70;94.00
70820;DHT22;58439;51.046;13.692;2022-12-31T01:38:34;9.70;94.10
70820;DHT22;58439;51.046;13.692;2022-12-31T01:41:02;9.60;94.30
70820;DHT22;58439;51.046;13.692;2022-12-31T01:43:44;9.60;94.40
70820;DHT22;58439;51.046;13.692;2022-12-31T02:03:27;9.60;94.90
70820;DHT22;58439;51.046;13.692;2022-12-31T02:08:26;9.60;95.00
70820;DHT22;58439;51.046;13.692;2022-12-31T02:10:53;9.50;95.00
70820;DHT22;58439;51.046;13.692;2022-12-31T02:13:20;9.50;95.20
70820;DHT22;58439;51.046;13.692;2022-12-31T02:35:26;9.50;96.20
70820;DHT22;58439;51.046;13.692;2022-12-31T02:37:58;9.50;96.70
70820;DHT22;58439;51.046;13.692;2022-12-31T02:40:31;9.80;97.90
70820;DHT22;58439;51.046;13.692;2022-12-31T02:43:00;10.20;97.80
70820;DHT22;58439;51.046;13.692;2022-12-31T02:45:31;10.50;97.20
70820;DHT22;58439;51.046;13.692;2022-12-31T02:48:09;10.90;96.90
70820;DHT22;58439;51.046;13.692;2022-12-31T02:50:45;11.20;96.40
70820;DHT22;58439;51.046;13.692;2022-12-31T02:56:08;11.60;95.40
70820;DHT22;58439;51.046;13.692;2022-12-31T02:58:52;12.00;95.30
70820;DHT22;58439;51.046;13.692;2022-12-31T03:01:42;12.20;94.80
70820;DHT22;58439;51.046;13.692;2022-12-31T03:04:31;12.30;94.40
70820;DHT22;58439;51.046;13.692;2022-12-31T03:07:06;12.30;94.00
70820;DHT22;58439;51.046;13.692;2022-12-31T03:09:36;12.30;94.10
70820;DHT22;58439;51.046;13.692;2022-12-31T03:12:04;12.30;94.30
70820;DHT22;58439;51.046;13.692;2022-12-31T03:14:52;12.40;94.30
70820;DHT22;58439;51.046;13.692;2022-12-31T03:17:19;12.50;94.00
70820;DHT22;58439;51.046;13.692;2022-12-31T03:19:46;12.60;93.80
70820;DHT22;58439;51.046;13.692;2022-12-31T03:22:32;12.60;93.70
70820;DHT22;58439;51.046;13.692;2022-12-31T03:25:16;12.70;93.40
70820;DHT22;58439;51.046;13.692;2022-12-31T03:28:03;12.70;93.40
70820;DHT22;58439;51.046;13.692;2022-12-31T03:31:39;12.80;93.20
70820;DHT22;58439;51.046;13.692;2022-12-31T03:34:06;12.90;92.90
70820;DHT22;58439;51.046;13.692;2022-12-31T03:36:33;13.00;92.80
70820;DHT22;58439;51.046;13.692;2022-12-31T03:39:00;12.90;92.60
70820;DHT22;58439;51.046;13.692;2022-12-31T03:41:30;12.90;92.80
70820;DHT22;58439;51.046;13.692;2022-12-31T03:44:13;12.90;92.90
70820;DHT22;58439;51.046;13.692;2022-12-31T03:46:39;13.00;92.60
70820;DHT22;58439;51.046;13.692;2022-12-31T03:52:11;13.10;92.20
70820;DHT22;58439;51.046;13.692;2022-12-31T03:54:38;13.10;92.20
70820;DHT22;58439;51.046;13.692;2022-12-31T03:57:05;13.10;92.10
70820;DHT22;58439;51.046;13.692;2022-12-31T03:59:32;13.10;92.10
70820;DHT22;58439;51.046;13.692;2022-12-31T04:01:59;13.10;92.20
70820;DHT22;58439;51.046;13.692;2022-12-31T04:04:26;13.10;92.10
70820;DHT22;58439;51.046;13.692;2022-12-31T04:06:53;13.10;92.20
70820;DHT22;58439;51.046;13.692;2022-12-31T04:09:20;13.10;92.10
70820;DHT22;58439;51.046;13.692;2022-12-31T04:11:47;13.10;92.10
70820;DHT22;58439;51.046;13.692;2022-12-31T04:14:14;13.20;92.00
70820;DHT22;58439;51.046;13.692;2022-12-31T04:16:43;13.20;91.90
70820;DHT22;58439;51.046;13.692;2022-12-31T04:19:11;13.30;91.90
70820;DHT22;58439;51.046;13.692;2022-12-31T04:21:39;13.20;91.80
70820;DHT22;58439;51.046;13.692;2022-12-31T04:24:06;13.20;91.80
70820;DHT22;58439;51.046;13.692;2022-12-31T04:26:33;13.20;91.90
70820;DHT22;58439;51.046;13.692;2022-12-31T04:29:00;13.20;92.00
70820;DHT22;58439;51.046;13.692;2022-12-31T04:31:27;13.10;92.10
70820;DHT22;58439;51.046;13.692;2022-12-31T04:33:54;13.20;92.10
70820;DHT22;58439;51.046;13.692;2022-12-31T04:36:21;13.30;92.00
70820;DHT22;58439;51.046;13.692;2022-12-31T04:38:48;13.30;91.80
70820;DHT22;58439;51.046;13.692;2022-12-31T04:41:15;13.40;91.70
70820;DHT22;58439;51.046;13.692;2022-12-31T04:46:26;13.40;91.60
70820;DHT22;58439;51.046;13.692;2022-12-31T04:48:55;13.40;91.70
70820;DHT22;58439;51.046;13.692;2022-12-31T04:51:22;13.40;91.60
70820;DHT22;58439;51.046;13.692;2022-12-31T04:53:50;13.50;91.60
70820;DHT22;58439;51.046;13.692;2022-12-31T04:56:17;13.60;91.50
70820;DHT22;58439;51.046;13.692;2022-12-31T04:58:44;13.80;91.00
70820;DHT22;58439;51.046;13.692;2022-12-31T05:01:11;13.80;90.80
70820;DHT22;58439;51.046;13.692;2022-12-31T05:03:39;13.90;90.60
70820;DHT22;58439;51.046;13.692;2022-12-31T05:06:11;14.00;90.30
70820;DHT22;58439;51.046;13.692;2022-12-31T05:08:39;14.00;90.10
70820;DHT22;58439;51.046;13.692;2022-12-31T05:11:08;14.10;90.00
70820;DHT22;58439;51.046;13.692;2022-12-31T05:13:35;14.10;89.80
70820;DHT22;58439;51.046;13.692;2022-12-31T05:16:02;14.10;89.70
70820;DHT22;58439;51.046;13.692;2022-12-31T05:18:31;14.20;89.50
70820;DHT22;58439;51.046;13.692;2022-12-31T05:20:58;14.20;89.40
70820;DHT22;58439;51.046;13.692;2022-12-31T05:23:26;14.20;89.40
70820;DHT22;58439;51.046;13.692;2022-12-31T05:25:53;14.20;89.40
70820;DHT22;58439;51.046;13.692;2022-12-31T05:28:20;14.30;89.10
70820;DHT22;58439;51.046;13.692;2022-12-31T05:30:48;14.30;89.00
70820;DHT22;58439;51.046;13.692;2022-12-31T05:33:17;14.30;89.20
70820;DHT22;58439;51.046;13.692;2022-12-31T05:35:44;14.40;88.90
70820;DHT22;58439;51.046;13.692;2022-12-31T05:38:11;14.40;88.50
70820;DHT22;58439;51.046;13.692;2022-12-31T05:40:38;14.40;88.80
70820;DHT22;58439;51.046;13.692;2022-12-31T05:43:05;14.30;89.10
70820;DHT22;58439;51.046;13.692;2022-12-31T05:45:33;14.30;89.60
70820;DHT22;58439;51.046;13.692;2022-12-31T05:48:00;14.30;89.60
70820;DHT22;58439;51.046;13.692;2022-12-31T05:50:27;14.30;89.50
70820;DHT22;58439;51.046;13.692;2022-12-31T05:52:55;14.30;89.50
70820;DHT22;58439;51.046;13.692;2022-12-31T05:55:22;14.40;89.20
70820;DHT22;58439;51.046;13.692;2022-12-31T05:57:49;14.30;90.00
70820;DHT22;58439;51.046;13.692;2022-12-31T06:00:16;14.30;89.80
70820;DHT22;58439;51.046;13.692;2022-12-31T06:02:43;14.30;90.00
70820;DHT22;58439;51.046;13.692;2022-12-31T06:05:11;14.20;90.00
70820;DHT22;58439;51.046;13.692;2022-12-31T06:07:38;14.20;90.10
70820;DHT22;58439;51.046;13.692;2022-12-31T06:10:05;14.30;90.00
70820;DHT22;58439;51.046;13.692;2022-12-31T06:12:33;14.40;89.40
70820;DHT22;58439;51.046;13.692;2022-12-31T06:15:01;14.40;89.20
70820;DHT22;58439;51.046;13.692;2022-12-31T06:17:29;14.40;89.40
70820;DHT22;58439;51.046;13.692;2022-12-31T06:19:58;14.40;89.20
70820;DHT22;58439;51.046;13.692;2022-12-31T06:22:25;14.50;88.90
70820;DHT22;58439;51.046;13.692;2022-12-31T06:24:52;14.40;88.80
70820;DHT22;58439;51.046;13.692;2022-12-31T06:27:19;14.40;89.00
70820;DHT22;58439;51.046;13.692;2022-12-31T06:29:46;14.40;88.90
70820;DHT22;58439;51.046;13.692;2022-12-31T06:32:14;14.40;88.90
70820;DHT22;58439;51.046;13.692;2022-12-31T06:34:41;14.40;88.90
70820;DHT22;58439;51.046;13.692;2022-12-31T06:37:08;14.40;88.80
70820;DHT22;58439;51.046;13.692;2022-12-31T06:39:35;14.40;88.70
70820;DHT22;58439;51.046;13.692;2022-12-31T06:42:02;14.50;88.50
70820;DHT22;58439;51.046;13.692;2022-12-31T06:44:29;14.40;88.50
70820;DHT22;58439;51.046;13.692;2022-12-31T06:46:56;14.40;88.20
70820;DHT22;58439;51.046;13.692;2022-12-31T06:49:23;14.40;88.60
70820;DHT22;58439;51.046;13.692;2022-12-31T06:51:50;14.40;88.70
70820;DHT22;58439;51.046;13.692;2022-12-31T06:54:44;14.30;88.80
70820;DHT22;58439;51.046;13.692;2022-12-31T06:57:12;14.30;89.00
70820;DHT22;58439;51.046;13.692;2022-12-31T06:59:40;14.30;89.10
70820;DHT22;58439;51.046;13.692;2022-12-31T07:07:53;14.30;89.00
70820;DHT22;58439;51.046;13.692;2022-12-31T07:10:36;14.20;89.10
70820;DHT22;58439;51.046;13.692;2022-12-31T07:13:24;14.30;89.30
70820;DHT22;58439;51.046;13.692;2022-12-31T07:16:24;14.30;89.00
70820;DHT22;58439;51.046;13.692;2022-12-31T07:19:22;14.40;88.60
70820;DHT22;58439;51.046;13.692;2022-12-31T07:21:52;14.40;88.30
70820;DHT22;58439;51.046;13.692;2022-12-31T07:24:21;14.40;88.10
70820;DHT22;58439;51.046;13.692;2022-12-31T07:47:23;14.70;87.60
70820;DHT22;58439;51.046;13.692;2022-12-31T07:49:52;14.80;86.80
70820;DHT22;58439;51.046;13.692;2022-12-31T07:52:20;14.90;86.70
70820;DHT22;58439;51.046;13.692;2022-12-31T07:54:47;15.00;86.30
70820;DHT22;58439;51.046;13.692;2022-12-31T07:57:16;15.10;85.90
70820;DHT22;58439;51.046;13.692;2022-12-31T08:03:04;15.50;84.00
70820;DHT22;58439;51.046;13.692;2022-12-31T08:08:57;15.80;82.70
70820;DHT22;58439;51.046;13.692;2022-12-31T08:11:31;15.80;82.10
70820;DHT22;58439;51.046;13.692;2022-12-31T08:14:10;16.00;81.20
70820;DHT22;58439;51.046;13.692;2022-12-31T08:16:39;16.20;80.20
70820;DHT22;58439;51.046;13.692;2022-12-31T08:19:07;16.30;79.30
70820;DHT22;58439;51.046;13.692;2022-12-31T08:31:04;16.70;76.40
70820;DHT22;58439;51.046;13.692;2022-12-31T08:36:35;16.70;76.30
70820;DHT22;58439;51.046;13.692;2022-12-31T08:39:26;16.70;75.80
70820;DHT22;58439;51.046;13.692;2022-12-31T08:42:00;16.70;75.70
70820;DHT22;58439;51.046;13.692;2022-12-31T08:47:32;16.90;74.70
70820;DHT22;58439;51.046;13.692;2022-12-31T08:50:12;16.90;74.10
70820;DHT22;58439;51.046;13.692;2022-12-31T08:52:40;17.00;74.00
70820;DHT22;58439;51.046;13.692;2022-12-31T08:55:11;17.00;74.20
70820;DHT22;58439;51.046;13.692;2022-12-31T09:00:24;17.00;73.90
70820;DHT22;58439;51.046;13.692;2022-12-31T09:02:59;17.00;73.10
70820;DHT22;58439;51.046;13.692;2022-12-31T09:05:38;17.10;72.70
70820;DHT22;58439;51.046;13.692;2022-12-31T09:11:05;17.20;72.40
70820;DHT22;58439;51.046;13.692;2022-12-31T09:17:03;17.20;72.30
70820;DHT22;58439;51.046;13.692;2022-12-31T09:19:45;17.20;72.00
70820;DHT22;58439;51.046;13.692;2022-12-31T09:22:12;17.30;71.70
70820;DHT22;58439;51.046;13.692;2022-12-31T09:24:40;17.30;71.60
70820;DHT22;58439;51.046;13.692;2022-12-31T09:38:33;17.40;70.00
70820;DHT22;58439;51.046;13.692;2022-12-31T09:41:13;17.40;69.60
70820;DHT22;58439;51.046;13.692;2022-12-31T09:49:40;17.60;68.40
70820;DHT22;58439;51.046;13.692;2022-12-31T09:52:56;17.60;68.40
70820;DHT22;58439;51.046;13.692;2022-12-31T09:55:51;17.50;68.30
70820;DHT22;58439;51.046;13.692;2022-12-31T10:12:22;17.70;67.80
70820;DHT22;58439;51.046;13.692;2022-12-31T10:17:56;17.90;66.10
70820;DHT22;58439;51.046;13.692;2022-12-31T10:23:39;18.30;63.70
70820;DHT22;58439;51.046;13.692;2022-12-31T10:26:36;18.50;62.60
70820;DHT22;58439;51.046;13.692;2022-12-31T10:32:20;18.60;61.80
70820;DHT22;58439;51.046;13.692;2022-12-31T10:35:10;18.70;61.20
70820;DHT22;58439;51.046;13.692;2022-12-31T10:37:52;18.60;60.90
70820;DHT22;58439;51.046;13.692;2022-12-31T10:43:21;18.60;61.30
70820;DHT22;58439;51.046;13.692;2022-12-31T10:46:07;18.60;60.90
70820;DHT22;58439;51.046;13.692;2022-12-31T10:51:36;18.80;59.10
70820;DHT22;58439;51.046;13.692;2022-12-31T11:03:46;18.40;61.40
70820;DHT22;58439;51.046;13.692;2022-12-31T11:26:31;18.30;62.30
70820;DHT22;58439;51.046;13.692;2022-12-31T11:31:59;18.50;62.30
70820;DHT22;58439;51.046;13.692;2022-12-31T11:43:34;18.50;62.10
70820;DHT22;58439;51.046;13.692;2022-12-31T11:46:08;18.50;62.00
70820;DHT22;58439;51.046;13.692;2022-12-31T11:57:13;19.00;59.30
70820;DHT22;58439;51.046;13.692;2022-12-31T11:59:49;19.00;58.80
70820;DHT22;58439;51.046;13.692;2022-12-31T12:02:27;19.00;58.60
70820;DHT22;58439;51.046;13.692;2022-12-31T12:04:58;19.00;57.80
70820;DHT22;58439;51.046;13.692;2022-12-31T12:07:33;19.00;57.80
70820;DHT22;58439;51.046;13.692;2022-12-31T12:10:02;18.90;58.00
70820;DHT22;58439;51.046;13.692;2022-12-31T12:12:40;18.90;57.20
70820;DHT22;58439;51.046;13.692;2022-12-31T12:15:09;19.00;56.80
70820;DHT22;58439;51.046;13.692;2022-12-31T12:17:42;19.10;56.10
70820;DHT22;58439;51.046;13.692;2022-12-31T12:20:17;19.30;55.10
70820;DHT22;58439;51.046;13.692;2022-12-31T12:22:49;19.70;53.30
70820;DHT22;58439;51.046;13.692;2022-12-31T12:25:19;20.00;51.40
70820;DHT22;58439;51.046;13.692;2022-12-31T12:27:48;20.30;50.00
70820;DHT22;58439;51.046;13.692;2022-12-31T12:30:19;20.50;49.10
70820;DHT22;58439;51.046;13.692;2022-12-31T12:33:01;20.60;48.60
70820;DHT22;58439;51.046;13.692;2022-12-31T12:35:54;20.70;49.10
70820;DHT22;58439;51.046;13.692;2022-12-31T12:39:04;20.50;48.00
70820;DHT22;58439;51.046;13.692;2022-12-31T12:41:35;20.30;49.00
70820;DHT22;58439;51.046;13.692;2022-12-31T12:44:05;20.30;49.10
70820;DHT22;58439;51.046;13.692;2022-12-31T12:46:37;20.30;48.80
70820;DHT22;58439;51.046;13.692;2022-12-31T12:57:19;19.70;50.30
70820;DHT22;58439;51.046;13.692;2022-12-31T12:59:54;19.40;51.70
70820;DHT22;58439;51.046;13.692;2022-12-31T13:08:25;19.00;53.70
70820;DHT22;58439;51.046;13.692;2022-12-31T13:13:35;19.00;54.20
70820;DHT22;58439;51.046;13.692;2022-12-31T13:16:30;19.00;54.70
70820;DHT22;58439;51.046;13.692;2022-12-31T13:19:36;18.90;55.50
70820;DHT22;58439;51.046;13.692;2022-12-31T13:27:43;18.70;56.40
70820;DHT22;58439;51.046;13.692;2022-12-31T13:30:15;18.70;56.70
70820;DHT22;58439;51.046;13.692;2022-12-31T13:32:46;18.70;57.40
70820;DHT22;58439;51.046;13.692;2022-12-31T13:37:47;18.60;57.80
70820;DHT22;58439;51.046;13.692;2022-12-31T13:49:19;18.40;59.50
70820;DHT22;58439;51.046;13.692;2022-12-31T13:52:05;18.40;60.10
70820;DHT22;58439;51.046;13.692;2022-12-31T14:01:43;18.30;61.00
70820;DHT22;58439;51.046;13.692;2022-12-31T14:04:20;18.20;61.10
70820;DHT22;58439;51.046;13.692;2022-12-31T14:07:14;18.30;61.20
70820;DHT22;58439;51.046;13.692;2022-12-31T14:09:56;18.20;61.30
70820;DHT22;58439;51.046;13.692;2022-12-31T14:15:47;18.10;61.80
70820;DHT22;58439;51.046;13.692;2022-12-31T14:18:31;18.10;61.90
70820;DHT22;58439;51.046;13.692;2022-12-31T14:21:21;18.00;62.10
70820;DHT22;58439;51.046;13.692;2022-12-31T15:19:16;17.70;63.60
70820;DHT22;58439;51.046;13.692;2022-12-31T15:22:15;17.70;63.20
70820;DHT22;58439;51.046;13.692;2022-12-31T15:24:57;17.80;62.80
70820;DHT22;58439;51.046;13.692;2022-12-31T15:30:34;17.70;63.10
70820;DHT22;58439;51.046;13.692;2022-12-31T15:33:04;17.60;63.70
70820;DHT22;58439;51.046;13.692;2022-12-31T15:35:46;17.50;64.20
70820;DHT22;58439;51.046;13.692;2022-12-31T15:40:49;17.50;64.20
70820;DHT22;58439;51.046;13.692;2022-12-31T15:43:21;17.50;64.00
70820;DHT22;58439;51.046;13.692;2022-12-31T15:45:55;17.50;64.20
70820;DHT22;58439;51.046;13.692;2022-12-31T15:48:25;17.40;64.30
70820;DHT22;58439;51.046;13.692;2022-12-31T15:50:57;17.40;64.70
70820;DHT22;58439;51.046;13.692;2022-12-31T15:53:31;17.40;64.90
70820;DHT22;58439;51.046;13.692;2022-12-31T15:56:03;17.40;64.30
70820;DHT22;58439;51.046;13.692;2022-12-31T15:58:31;17.40;64.30
70820;DHT22;58439;51.046;13.692;2022-12-31T16:01:14;17.40;64.40
70820;DHT22;58439;51.046;13.692;2022-12-31T16:03:48;17.40;64.70
70820;DHT22;58439;51.046;13.692;2022-12-31T16:06:24;17.30;64.80
70820;DHT22;58439;51.046;13.692;2022-12-31T16:08:55;17.30;65.00
70820;DHT22;58439;51.046;13.692;2022-12-31T16:11:23;17.30;64.80
70820;DHT22;58439;51.046;13.692;2022-12-31T16:13:51;17.30;64.70
70820;DHT22;58439;51.046;13.692;2022-12-31T16:16:27;17.30;65.00
70820;DHT22;58439;51.046;13.692;2022-12-31T16:18:56;17.30;65.00
70820;DHT22;58439;51.046;13.692;2022-12-31T16:23:53;17.20;65.40
70820;DHT22;58439;51.046;13.692;2022-12-31T16:26:23;17.10;65.70
70820;DHT22;58439;51.046;13.692;2022-12-31T16:28:55;17.10;66.10
70820;DHT22;58439;51.046;13.692;2022-12-31T16:31:26;17.00;66.30
70820;DHT22;58439;51.046;13.692;2022-12-31T16:34:04;16.90;66.70
70820;DHT22;58439;51.046;13.692;2022-12-31T16:36:37;16.90;66.90
70820;DHT22;58439;51.046;13.692;2022-12-31T16:42:05;16.90;67.10
70820;DHT22;58439;51.046;13.692;2022-12-31T16:44:35;16.80;67.50
70820;DHT22;58439;51.046;13.692;2022-12-31T16:47:02;16.80;68.20
70820;DHT22;58439;51.046;13.692;2022-12-31T16:49:32;16.80;68.20
70820;DHT22;58439;51.046;13.692;2022-12-31T16:52:19;16.80;68.50
70820;DHT22;58439;51.046;13.692;2022-12-31T16:54:52;16.80;68.40
70820;DHT22;58439;51.046;13.692;2022-12-31T16:57:21;16.80;68.60
70820;DHT22;58439;51.046;13.692;2022-12-31T16:59:53;16.80;68.90
70820;DHT22;58439;51.046;13.692;2022-12-31T17:02:25;16.70;69.00
70820;DHT22;58439;51.046;13.692;2022-12-31T17:04:55;16.70;69.10
70820;DHT22;58439;51.046;13.692;2022-12-31T17:10:02;16.60;70.00
70820;DHT22;58439;51.046;13.692;2022-12-31T17:12:54;16.60;70.20
70820;DHT22;58439;51.046;13.692;2022-12-31T17:15:44;16.60;70.40
70820;DHT22;58439;51.046;13.692;2022-12-31T17:18:18;16.50;70.70
70820;DHT22;58439;51.046;13.692;2022-12-31T17:20:48;16.50;71.60
70820;DHT22;58439;51.046;13.692;2022-12-31T17:23:24;16.50;71.30
70820;DHT22;58439;51.046;13.692;2022-12-31T17:25:58;16.40;71.70
70820;DHT22;58439;51.046;13.692;2022-12-31T17:28:27;16.50;71.70
70820;DHT22;58439;51.046;13.692;2022-12-31T17:31:23;16.50;71.90
70820;DHT22;58439;51.046;13.692;2022-12-31T17:36:40;16.70;71.70
70820;DHT22;58439;51.046;13.692;2022-12-31T17:39:20;16.80;71.10
70820;DHT22;58439;51.046;13.692;2022-12-31T17:41:49;16.80;70.50
70820;DHT22;58439;51.046;13.692;2022-12-31T17:44:19;16.90;70.40
70820;DHT22;58439;51.046;13.692;2022-12-31T17:46:48;16.80;70.20
70820;DHT22;58439;51.046;13.692;2022-12-31T17:49:18;16.70;70.40
70820;DHT22;58439;51.046;13.692;2022-12-31T17:52:15;16.70;71.00
70820;DHT22;58439;51.046;13.692;2022-12-31T17:54:42;16.70;70.80
70820;DHT22;58439;51.046;13.692;2022-12-31T17:57:23;16.70;70.70
70820;DHT22;58439;51.046;13.692;2022-12-31T17:59:53;16.70;70.60
70820;DHT22;58439;51.046;13.692;2022-12-31T18:02:20;16.60;70.90
70820;DHT22;58439;51.046;13.692;2022-12-31T18:04:47;16.50;71.30
70820;DHT22;58439;51.046;13.692;2022-12-31T18:07:14;16.40;71.80
70820;DHT22;58439;51.046;13.692;2022-12-31T18:09:41;16.30;71.90
70820;DHT22;58439;51.046;13.692;2022-12-31T18:12:09;16.30;72.70
70820;DHT22;58439;51.046;13.692;2022-12-31T18:14:39;16.30;73.00
70820;DHT22;58439;51.046;13.692;2022-12-31T18:17:13;16.20;72.90
70820;DHT22;58439;51.046;13.692;2022-12-31T18:24:33;16.20;72.80
70820;DHT22;58439;51.046;13.692;2022-12-31T18:38:34;15.60;76.10
70820;DHT22;58439;51.046;13.692;2022-12-31T18:41:01;15.70;75.50
70820;DHT22;58439;51.046;13.692;2022-12-31T18:43:30;15.50;75.80
70820;DHT22;58439;51.046;13.692;2022-12-31T18:45:57;15.40;76.00
70820;DHT22;58439;51.046;13.692;2022-12-31T18:48:24;15.30;77.10
70820;DHT22;58439;51.046;13.692;2022-12-31T18:50:54;15.40;77.20
70820;DHT22;58439;51.046;13.692;2022-12-31T18:53:23;15.30;77.70
70820;DHT22;58439;51.046;13.692;2022-12-31T18:55:52;15.30;77.50
70820;DHT22;58439;51.046;13.692;2022-12-31T18:58:20;15.30;77.30
70820;DHT22;58439;51.046;13.692;2022-12-31T19:00:48;15.30;77.60
70820;DHT22;58439;51.046;13.692;2022-12-31T19:03:23;15.30;77.60
70820;DHT22;58439;51.046;13.692;2022-12-31T19:05:53;15.20;77.80
70820;DHT22;58439;51.046;13.692;2022-12-31T19:08:20;15.20;77.80
70820;DHT22;58439;51.046;13.692;2022-12-31T19:10:49;15.40;77.30
70820;DHT22;58439;51.046;13.692;2022-12-31T19:13:18;15.50;76.60
70820;DHT22;58439;51.046;13.692;2022-12-31T19:15:46;15.60;75.80
70820;DHT22;58439;51.046;13.692;2022-12-31T19:18:16;15.60;75.20
70820;DHT22;58439;51.046;13.692;2022-12-31T19:20:42;15.60;74.90
70820;DHT22;58439;51.046;13.692;2022-12-31T19:23:16;15.70;74.50
70820;DHT22;58439;51.046;13.692;2022-12-31T19:25:46;15.70;74.20
70820;DHT22;58439;51.046;13.692;2022-12-31T19:28:21;15.70;73.90
70820;DHT22;58439;51.046;13.692;2022-12-31T19:30:50;15.70;73.70
70820;DHT22;58439;51.046;13.692;2022-12-31T19:33:17;15.80;73.50
70820;DHT22;58439;51.046;13.692;2022-12-31T19:35:47;15.80;72.80
70820;DHT22;58439;51.046;13.692;2022-12-31T19:38:26;15.80;72.80
70820;DHT22;58439;51.046;13.692;2022-12-31T19:40:54;15.90;71.90
70820;DHT22;58439;51.046;13.692;2022-12-31T19:43:22;15.90;71.80
70820;DHT22;58439;51.046;13.692;2022-12-31T19:45:49;15.80;71.10
70820;DHT22;58439;51.046;13.692;2022-12-31T19:48:18;16.00;70.60
70820;DHT22;58439;51.046;13.692;2022-12-31T19:50:51;16.00;69.80
70820;DHT22;58439;51.046;13.692;2022-12-31T19:53:21;16.30;67.50
70820;DHT22;58439;51.046;13.692;2022-12-31T19:55:50;16.40;66.30
70820;DHT22;58439;51.046;13.692;2022-12-31T19:58:19;16.40;65.80
70820;DHT22;58439;51.046;13.692;2022-12-31T20:00:47;16.40;65.90
70820;DHT22;58439;51.046;13.692;2022-12-31T20:03:21;16.60;64.30
70820;DHT22;58439;51.046;13.692;2022-12-31T20:05:48;16.60;64.00
70820;DHT22;58439;51.046;13.692;2022-12-31T20:08:15;16.60;63.40
70820;DHT22;58439;51.046;13.692;2022-12-31T20:10:42;16.60;63.40
70820;DHT22;58439;51.046;13.692;2022-12-31T20:13:09;16.60;62.70
70820;DHT22;58439;51.046;13.692;2022-12-31T20:15:37;16.70;62.70
70820;DHT22;58439;51.046;13.692;2022-12-31T20:18:04;16.50;62.80
70820;DHT22;58439;51.046;13.692;2022-12-31T20:20:31;16.50;63.80
70820;DHT22;58439;51.046;13.692;2022-12-31T20:22:58;16.60;62.40
70820;DHT22;58439;51.046;13.692;2022-12-31T20:25:25;16.70;61.80
70820;DHT22;58439;51.046;13.692;2022-12-31T20:27:53;16.80;61.00
70820;DHT22;58439;51.046;13.692;2022-12-31T20:30:21;16.80;60.90
70820;DHT22;58439;51.046;13.692;2022-12-31T20:32:48;16.90;59.50
70820;DHT22;58439;51.046;13.692;2022-12-31T20:35:18;17.10;58.10
70820;DHT22;58439;51.046;13.692;2022-12-31T20:37:45;17.10;57.20
70820;DHT22;58439;51.046;13.692;2022-12-31T20:40:13;17.20;56.50
70820;DHT22;58439;51.046;13.692;2022-12-31T20:42:40;17.20;56.20
70820;DHT22;58439;51.046;13.692;2022-12-31T20:45:08;17.30;55.30
70820;DHT22;58439;51.046;13.692;2022-12-31T20:47:36;17.30;54.60
70820;DHT22;58439;51.046;13.692;2022-12-31T20:50:03;17.30;54.10
70820;DHT22;58439;51.046;13.692;2022-12-31T20:52:38;17.30;53.90
70820;DHT22;58439;51.046;13.692;2022-12-31T20:55:09;17.20;54.00
70820;DHT22;58439;51.046;13.692;2022-12-31T20:58:07;17.20;54.40
70820;DHT22;58439;51.046;13.692;2022-12-31T21:00:37;17.10;54.40
70820;DHT22;58439;51.046;13.692;2022-12-31T21:03:30;17.20;53.80
70820;DHT22;58439;51.046;13.692;2022-12-31T21:06:17;17.30;53.10
70820;DHT22;58439;51.046;13.692;2022-12-31T21:08:45;17.30;52.50
70820;DHT22;58439;51.046;13.692;2022-12-31T21:11:12;17.40;51.90
70820;DHT22;58439;51.046;13.692;2022-12-31T21:13:58;17.50;51.60
70820;DHT22;58439;51.046;13.692;2022-12-31T21:16:26;17.50;51.10
70820;DHT22;58439;51.046;13.692;2022-12-31T21:18:53;17.60;50.30
70820;DHT22;58439;51.046;13.692;2022-12-31T21:21:21;17.70;49.80
70820;DHT22;58439;51.046;13.692;2022-12-31T21:23:48;17.70;49.60